createdAt,value
2023-07-11T00:00:54.615Z,10.70
2023-07-11T00:03:21.584Z,9.57
2023-07-11T00:06:02.441Z,8.50
2023-07-11T00:08:29.119Z,9.95
2023-07-11T00:10:55.936Z,7.55
2023-07-11T00:13:22.772Z,8.50
2023-07-11T00:16:02.708Z,9.30
2023-07-11T00:18:30.251Z,11.13
2023-07-11T00:20:57.171Z,10.10
2023-07-11T00:23:24.622Z,11.77
2023-07-11T00:25:51.562Z,12.73
2023-07-11T00:28:18.235Z,9.48
2023-07-11T00:30:45.692Z,8.70
2023-07-11T00:33:12.673Z,12.05
2023-07-11T00:35:40.789Z,12.57
2023-07-11T00:38:07.706Z,10.43
2023-07-11T00:40:40.649Z,9.32
2023-07-11T00:43:11.216Z,12.13
2023-07-11T00:46:01.699Z,12.63
2023-07-11T00:48:29.271Z,10.38
2023-07-11T00:50:57.903Z,9.63
2023-07-11T00:53:26.956Z,13.85
2023-07-11T00:55:55.836Z,9.10
2023-07-11T00:58:26.108Z,9.77
2023-07-11T01:00:53.977Z,12.95
2023-07-11T01:03:23.316Z,9.02
2023-07-11T01:05:50.166Z,14.38
2023-07-11T01:08:17.137Z,9.23
2023-07-11T01:10:43.834Z,9.15
2023-07-11T01:13:11.172Z,9.40
2023-07-11T01:15:37.737Z,9.43
2023-07-11T01:18:04.630Z,11.63
2023-07-11T01:20:31.358Z,11.23
2023-07-11T01:22:58.413Z,10.43
2023-07-11T01:25:25.151Z,8.98
2023-07-11T01:27:51.890Z,9.00
2023-07-11T01:30:22.089Z,11.38
2023-07-11T01:32:49.461Z,19.30
2023-07-11T01:35:16.820Z,13.02
2023-07-11T01:37:43.483Z,11.32
2023-07-11T01:40:10.500Z,8.02
2023-07-11T01:42:37.881Z,8.82
2023-07-11T01:45:04.992Z,9.43
2023-07-11T01:47:32.102Z,10.77
2023-07-11T01:49:58.804Z,13.40
2023-07-11T01:52:25.464Z,11.23
2023-07-11T01:54:52.468Z,9.95
2023-07-11T01:57:22.175Z,9.35
2023-07-11T01:59:48.915Z,9.23
2023-07-11T02:02:15.544Z,10.02
2023-07-11T02:04:42.389Z,8.93
2023-07-11T02:07:09.101Z,9.73
2023-07-11T02:09:36.409Z,7.65
2023-07-11T02:12:03.782Z,8.45
2023-07-11T02:14:30.655Z,11.38
2023-07-11T02:16:57.561Z,8.25
2023-07-11T02:19:25.529Z,10.70
2023-07-11T02:21:52.197Z,8.63
2023-07-11T02:24:19.915Z,9.00
2023-07-11T02:26:49.923Z,7.82
2023-07-11T02:29:17.152Z,9.10
2023-07-11T02:31:44.170Z,10.75
2023-07-11T02:34:11.110Z,10.25
2023-07-11T02:36:38.077Z,9.10
2023-07-11T02:39:06.651Z,11.25
2023-07-11T02:41:33.481Z,8.32
2023-07-11T02:44:00.547Z,11.25
2023-07-11T02:46:27.620Z,10.93
2023-07-11T02:48:55.740Z,10.25
2023-07-11T02:51:23.363Z,10.95
2023-07-11T02:53:50.140Z,10.25
2023-07-11T02:56:20.185Z,10.02
2023-07-11T02:58:52.623Z,8.23
2023-07-11T03:01:19.348Z,11.57
2023-07-11T03:03:46.336Z,7.93
2023-07-11T03:06:13.044Z,10.77
2023-07-11T03:08:39.688Z,11.82
2023-07-11T03:11:06.383Z,7.55
2023-07-11T03:13:33.047Z,10.63
2023-07-11T03:16:05.082Z,9.10
2023-07-11T03:18:33.047Z,7.20
2023-07-11T03:21:02.243Z,9.48
2023-07-11T03:23:30.258Z,8.10
2023-07-11T03:25:57.079Z,7.57
2023-07-11T03:28:24.026Z,9.02
2023-07-11T03:30:52.681Z,12.77
2023-07-11T03:33:19.547Z,8.27
2023-07-11T03:35:51.880Z,9.25
2023-07-11T03:38:19.512Z,10.70
2023-07-11T03:40:46.568Z,9.52
2023-07-11T03:43:13.540Z,9.63
2023-07-11T03:45:50.618Z,10.30
2023-07-11T03:48:20.526Z,10.00
2023-07-11T03:50:47.198Z,8.70
2023-07-11T03:53:14.989Z,13.77
2023-07-11T03:55:44.972Z,15.73
2023-07-11T03:58:11.831Z,9.90
2023-07-11T04:00:38.555Z,13.07
2023-07-11T04:03:05.462Z,13.60
2023-07-11T04:05:32.160Z,10.32
2023-07-11T04:07:58.941Z,8.35
2023-07-11T04:10:26.044Z,9.05
2023-07-11T04:12:52.646Z,11.70
2023-07-11T04:15:19.379Z,12.52
2023-07-11T04:17:46.139Z,9.20
2023-07-11T04:20:13.464Z,10.65
2023-07-11T04:22:40.184Z,10.65
2023-07-11T04:25:07.237Z,10.52
2023-07-11T04:27:33.977Z,7.55
2023-07-11T04:30:00.713Z,8.88
2023-07-11T04:32:27.397Z,9.05
2023-07-11T04:34:54.114Z,9.55
2023-07-11T04:37:20.769Z,10.30
2023-07-11T04:39:47.374Z,13.13
2023-07-11T04:42:14.016Z,10.70
2023-07-11T04:44:40.690Z,8.23
2023-07-11T04:47:07.980Z,9.77
2023-07-11T04:49:34.837Z,10.75
2023-07-11T04:52:01.560Z,17.30
2023-07-11T04:54:28.189Z,17.58
2023-07-11T04:57:04.442Z,10.25
2023-07-11T04:59:31.094Z,13.30
2023-07-11T05:01:57.780Z,8.60
2023-07-11T05:04:24.443Z,7.97
2023-07-11T05:06:51.386Z,9.60
2023-07-11T05:09:21.174Z,12.18
2023-07-11T05:11:49.273Z,10.27
2023-07-11T05:14:16.120Z,10.48
2023-07-11T05:16:42.915Z,12.07
2023-07-11T05:19:09.617Z,15.27
2023-07-11T05:21:36.306Z,13.15
2023-07-11T05:24:03.350Z,14.05
2023-07-11T05:26:30.816Z,11.30
2023-07-11T05:29:00.298Z,25.10
2023-07-11T05:31:27.083Z,21.88
2023-07-11T05:33:54.569Z,12.57
2023-07-11T05:36:35.518Z,28.83
2023-07-11T05:39:12.535Z,20.77
2023-07-11T05:41:45.409Z,18.52
2023-07-11T05:44:13.658Z,22.75
2023-07-11T05:46:41.211Z,29.60
2023-07-11T05:49:08.955Z,13.27
2023-07-11T05:51:36.240Z,20.95
2023-07-11T05:54:03.545Z,25.88
2023-07-11T05:56:30.295Z,11.60
2023-07-11T05:58:58.170Z,22.23
2023-07-11T06:01:29.030Z,17.23
2023-07-11T06:04:13.536Z,13.15
2023-07-11T06:06:44.522Z,20.85
2023-07-11T06:09:20.229Z,16.70
2023-07-11T06:11:49.165Z,20.63
2023-07-11T06:14:18.210Z,11.63
2023-07-11T06:16:47.180Z,33.47
2023-07-11T06:19:17.679Z,23.65
2023-07-11T06:21:47.321Z,15.93
2023-07-11T06:24:13.979Z,15.25
2023-07-11T06:26:40.776Z,26.40
2023-07-11T06:29:07.442Z,22.15
2023-07-11T06:31:36.282Z,22.60
2023-07-11T06:34:02.995Z,27.52
2023-07-11T06:36:29.628Z,28.83
2023-07-11T06:38:56.513Z,56.67
2023-07-11T06:41:23.647Z,31.42
2023-07-11T06:43:52.512Z,33.17
2023-07-11T06:46:19.770Z,34.58
2023-07-11T06:48:46.658Z,16.05
2023-07-11T06:51:13.428Z,29.70
2023-07-11T06:53:40.072Z,28.13
2023-07-11T06:56:06.802Z,17.70
2023-07-11T06:58:33.923Z,18.00
2023-07-11T07:01:13.295Z,12.10
2023-07-11T07:03:43.256Z,18.05
2023-07-11T07:06:12.696Z,23.25
2023-07-11T07:08:39.656Z,18.77
2023-07-11T07:11:08.462Z,17.25
2023-07-11T07:13:35.476Z,26.58
2023-07-11T07:16:03.511Z,20.30
2023-07-11T07:18:36.711Z,19.55
2023-07-11T07:21:04.567Z,22.23
2023-07-11T07:23:32.691Z,21.92
2023-07-11T07:26:01.032Z,15.57
2023-07-11T07:28:29.881Z,14.48
2023-07-11T07:30:58.606Z,16.05
2023-07-11T07:33:27.354Z,22.88
2023-07-11T07:36:02.029Z,13.88
2023-07-11T07:38:31.618Z,12.85
2023-07-11T07:41:02.281Z,20.35
2023-07-11T07:45:58.528Z,15.18
2023-07-11T07:48:28.407Z,12.30
2023-07-11T07:51:05.609Z,12.85
2023-07-11T07:53:33.852Z,21.48
2023-07-11T07:56:07.942Z,12.85
2023-07-11T08:01:05.885Z,13.02
2023-07-11T08:03:38.561Z,8.10
2023-07-11T08:08:35.768Z,10.93
2023-07-11T08:11:04.776Z,14.18
2023-07-11T08:13:38.583Z,10.73
2023-07-11T08:16:29.454Z,21.13
2023-07-11T08:18:58.189Z,9.38
2023-07-11T08:21:25.297Z,13.27
2023-07-11T08:23:53.096Z,18.38
2023-07-11T08:26:20.822Z,12.85
2023-07-11T08:28:47.503Z,14.50
2023-07-11T08:31:15.010Z,14.43
2023-07-11T08:33:41.647Z,12.38
2023-07-11T08:36:08.832Z,12.48
2023-07-11T08:38:35.498Z,23.63
2023-07-11T08:41:39.769Z,9.35
2023-07-11T08:44:15.760Z,11.10
2023-07-11T08:46:52.426Z,18.73
2023-07-11T08:49:27.069Z,10.32
2023-07-11T08:51:57.354Z,11.80
2023-07-11T08:54:31.429Z,10.73
2023-07-11T08:57:00.471Z,12.05
2023-07-11T08:59:56.330Z,11.77
2023-07-11T09:02:33.422Z,13.68
2023-07-11T09:05:02.051Z,17.77
2023-07-11T09:07:43.348Z,15.32
2023-07-11T09:10:51.569Z,11.18
2023-07-11T09:13:30.502Z,10.85
2023-07-11T09:16:09.577Z,10.68
2023-07-11T09:18:51.765Z,10.50
2023-07-11T09:21:31.615Z,13.18
2023-07-11T09:24:12.566Z,11.05
2023-07-11T09:26:51.076Z,12.77
2023-07-11T09:29:19.191Z,18.70
2023-07-11T09:31:51.566Z,11.60
2023-07-11T09:34:38.143Z,11.18
2023-07-11T09:37:29.719Z,10.60
2023-07-11T09:40:24.507Z,14.10
2023-07-11T09:42:58.950Z,16.60
2023-07-11T09:45:38.316Z,13.80
2023-07-11T09:48:12.698Z,15.48
2023-07-11T09:50:49.017Z,14.52
2023-07-11T09:53:30.246Z,16.80
2023-07-11T09:56:12.380Z,12.88
2023-07-11T09:58:40.926Z,16.27
2023-07-11T10:01:16.226Z,13.65
2023-07-11T10:03:48.416Z,20.80
2023-07-11T10:06:48.132Z,15.00
2023-07-11T10:09:22.125Z,17.05
2023-07-11T10:11:56.668Z,20.00
2023-07-11T10:14:41.290Z,17.73
2023-07-11T10:17:42.259Z,15.30
2023-07-11T10:20:19.743Z,16.90
2023-07-11T10:22:57.397Z,16.27
2023-07-11T10:25:29.608Z,17.92
2023-07-11T10:28:30.526Z,15.65
2023-07-11T10:30:59.622Z,20.02
2023-07-11T10:33:48.959Z,16.05
2023-07-11T10:36:28.288Z,17.50
2023-07-11T10:39:00.412Z,18.02
2023-07-11T10:41:54.797Z,12.45
2023-07-11T10:44:35.761Z,19.90
2023-07-11T10:47:05.566Z,12.25
2023-07-11T10:49:49.144Z,15.75
2023-07-11T10:52:23.238Z,12.25
2023-07-11T10:55:07.229Z,13.48
2023-07-11T10:57:51.440Z,17.63
2023-07-11T11:00:45.960Z,16.60
2023-07-11T11:03:36.939Z,19.90
2023-07-11T11:06:46.470Z,16.85
2023-07-11T11:09:37.146Z,25.15
2023-07-11T11:12:16.651Z,16.42
2023-07-11T11:15:17.273Z,16.63
2023-07-11T11:17:47.018Z,11.57
2023-07-11T11:20:25.359Z,15.50
2023-07-11T11:23:07.201Z,30.08
2023-07-11T11:26:22.569Z,14.23
2023-07-11T11:29:16.727Z,17.25
2023-07-11T11:32:02.123Z,13.60
2023-07-11T11:35:14.492Z,15.90
2023-07-11T11:38:10.142Z,12.13
2023-07-11T11:40:44.363Z,15.38
2023-07-11T11:43:20.477Z,19.55
2023-07-11T11:50:58.216Z,13.15
2023-07-11T11:53:49.963Z,10.93
2023-07-11T11:56:24.114Z,15.52
2023-07-11T11:58:59.957Z,20.77
2023-07-11T12:01:34.516Z,18.77
2023-07-11T12:04:01.346Z,12.80
2023-07-11T12:06:44.631Z,13.63
2023-07-11T12:09:17.019Z,12.50
2023-07-11T12:12:09.206Z,11.45
2023-07-11T12:14:59.291Z,16.60
2023-07-11T12:17:35.178Z,15.05
2023-07-11T12:20:02.727Z,14.68
2023-07-11T12:22:38.678Z,19.42
2023-07-11T12:25:08.468Z,12.35
2023-07-11T12:30:41.979Z,12.63
2023-07-11T12:33:34.748Z,14.98
2023-07-11T12:36:11.701Z,13.90
2023-07-11T12:39:04.436Z,12.52
2023-07-11T12:42:04.486Z,14.38
2023-07-11T12:44:34.532Z,16.05
2023-07-11T12:49:31.877Z,13.77
2023-07-11T12:52:17.682Z,17.55
2023-07-11T12:54:45.315Z,13.52
2023-07-11T12:57:28.524Z,11.50
2023-07-11T12:59:55.219Z,18.02
2023-07-11T13:02:28.856Z,16.85
2023-07-11T13:04:59.080Z,13.85
2023-07-11T13:07:32.307Z,15.43
2023-07-11T13:10:02.034Z,16.90
2023-07-11T13:12:35.691Z,13.45
2023-07-11T13:15:13.598Z,14.65
2023-07-11T13:17:42.079Z,17.15
2023-07-11T13:20:24.934Z,18.50
2023-07-11T13:22:53.039Z,13.15
2023-07-11T13:25:28.391Z,13.98
2023-07-11T13:27:57.544Z,15.07
2023-07-11T13:30:27.958Z,15.57
2023-07-11T13:32:57.932Z,13.35
2023-07-11T13:35:35.632Z,15.93
2023-07-11T13:38:03.621Z,11.48
2023-07-11T13:40:41.717Z,12.73
2023-07-11T13:43:21.517Z,13.77
2023-07-11T13:45:51.521Z,12.93
2023-07-11T13:48:30.001Z,13.18
2023-07-11T13:51:17.634Z,14.15
2023-07-11T13:53:50.541Z,22.88
2023-07-11T13:56:18.001Z,11.43
2023-07-11T13:58:47.307Z,28.58
2023-07-11T14:01:20.328Z,15.35
2023-07-11T14:03:48.127Z,14.93
2023-07-11T14:06:16.724Z,16.38
2023-07-11T14:08:44.434Z,16.73
2023-07-11T14:11:17.133Z,23.90
2023-07-11T14:13:43.797Z,21.58
2023-07-11T14:16:14.444Z,19.27
2023-07-11T14:18:41.092Z,18.90
2023-07-11T14:21:15.487Z,20.42
2023-07-11T14:23:42.107Z,13.70
2023-07-11T14:26:09.270Z,21.85
2023-07-11T14:28:36.393Z,21.70
2023-07-11T14:31:16.368Z,19.50
2023-07-11T14:33:43.876Z,16.88
2023-07-11T14:36:10.501Z,21.52
2023-07-11T14:38:37.288Z,16.65
2023-07-11T14:41:06.829Z,15.68
2023-07-11T14:43:35.032Z,11.85
2023-07-11T14:46:01.765Z,14.90
2023-07-11T14:48:29.785Z,11.63
2023-07-11T14:53:52.950Z,15.85
2023-07-11T14:58:57.805Z,13.82
2023-07-11T15:01:25.976Z,19.17
2023-07-11T15:11:33.847Z,21.95
2023-07-11T15:16:30.550Z,23.70
2023-07-11T15:18:57.279Z,18.05
2023-07-11T15:21:23.966Z,21.95
2023-07-11T15:23:50.599Z,22.73
2023-07-11T15:26:21.904Z,19.50
2023-07-11T15:28:49.375Z,17.65
2023-07-11T15:31:20.861Z,23.63
2023-07-11T15:33:17.879Z,12.95
2023-07-11T15:33:48.030Z,21.13
2023-07-11T15:36:15.620Z,22.02
2023-07-11T15:38:42.384Z,22.38
2023-07-11T15:41:16.029Z,35.65
2023-07-11T15:43:44.406Z,13.93
2023-07-11T15:46:20.204Z,11.48
2023-07-11T15:48:49.003Z,15.20
2023-07-11T15:51:18.116Z,12.20
2023-07-11T15:53:44.988Z,12.27
2023-07-11T15:56:18.733Z,13.15
2023-07-11T15:58:45.362Z,14.30
2023-07-11T16:01:12.666Z,14.80
2023-07-11T16:03:39.346Z,10.82
2023-07-11T16:06:14.946Z,9.10
2023-07-11T16:08:42.074Z,16.00
2023-07-11T16:11:11.304Z,18.38
2023-07-11T16:13:38.874Z,7.47
2023-07-11T16:16:14.941Z,17.88
2023-07-11T16:18:41.782Z,10.50
2023-07-11T16:21:15.098Z,9.27
2023-07-11T16:23:41.722Z,7.32
2023-07-11T16:26:19.058Z,10.50
2023-07-11T16:28:45.794Z,14.95
2023-07-11T16:31:12.932Z,14.13
2023-07-11T16:33:39.911Z,14.77
2023-07-11T16:36:11.278Z,13.55
2023-07-11T16:38:41.159Z,11.43
2023-07-11T16:41:08.597Z,11.75
2023-07-11T16:43:35.709Z,13.63
2023-07-11T16:46:02.455Z,11.75
2023-07-11T16:48:31.413Z,9.55
2023-07-11T16:51:02.025Z,11.27
2023-07-11T16:53:33.045Z,12.52
2023-07-11T16:56:00.363Z,10.95
2023-07-11T16:58:38.068Z,13.50
2023-07-11T17:01:05.298Z,21.38
2023-07-11T17:03:32.192Z,13.32
2023-07-11T17:05:58.996Z,11.70
2023-07-11T17:08:29.997Z,11.40
2023-07-11T17:10:56.838Z,13.23
2023-07-11T17:13:29.327Z,14.68
2023-07-11T17:15:57.398Z,12.52
2023-07-11T17:18:25.209Z,14.10
2023-07-11T17:20:57.597Z,23.80
2023-07-11T17:23:25.812Z,13.88
2023-07-11T17:25:53.279Z,23.63
2023-07-11T17:28:28.057Z,22.02
2023-07-11T17:30:55.315Z,17.42
2023-07-11T17:33:25.020Z,15.38
2023-07-11T17:35:51.925Z,12.20
2023-07-11T17:38:23.126Z,12.27
2023-07-11T17:40:50.578Z,16.40
2023-07-11T17:43:24.988Z,14.73
2023-07-11T17:48:28.375Z,13.50
2023-07-11T17:50:57.762Z,14.13
2023-07-11T17:53:25.119Z,13.48
2023-07-11T17:55:52.166Z,14.65
2023-07-11T17:58:25.303Z,15.63
2023-07-11T18:00:55.090Z,18.50
2023-07-11T18:03:22.626Z,15.32
2023-07-11T18:05:49.948Z,17.25
2023-07-11T18:08:18.963Z,14.35
2023-07-11T18:10:47.183Z,19.00
2023-07-11T18:13:14.117Z,16.65
2023-07-11T18:15:44.270Z,21.58
2023-07-11T18:18:19.994Z,21.42
2023-07-11T18:20:46.641Z,24.13
2023-07-11T18:23:13.278Z,26.35
2023-07-11T18:25:40.670Z,19.38
2023-07-11T18:28:18.694Z,23.33
2023-07-11T18:30:46.433Z,22.63
2023-07-11T18:33:13.605Z,22.10
2023-07-11T18:35:41.301Z,18.35
2023-07-11T18:38:18.932Z,21.63
2023-07-11T18:40:46.571Z,24.80
2023-07-11T18:43:14.205Z,20.92
2023-07-11T18:45:43.312Z,25.05
2023-07-11T18:48:12.304Z,27.98
2023-07-11T18:50:40.044Z,20.20
2023-07-11T18:53:08.858Z,24.48
2023-07-11T18:55:36.233Z,21.85
2023-07-11T18:58:05.269Z,20.45
2023-07-11T19:00:38.749Z,20.52
2023-07-11T19:03:11.749Z,23.92
2023-07-11T19:05:40.098Z,22.13
2023-07-11T19:08:21.662Z,22.35
2023-07-11T19:10:49.529Z,19.20
2023-07-11T19:13:19.793Z,27.30
2023-07-11T19:15:50.118Z,22.38
2023-07-11T19:18:22.854Z,23.15
2023-07-11T19:20:53.942Z,21.95
2023-07-11T19:23:22.698Z,22.27
2023-07-11T19:25:50.865Z,21.05
2023-07-11T19:28:20.774Z,19.65
2023-07-11T19:30:50.493Z,20.83
2023-07-11T19:33:18.548Z,19.65
2023-07-11T19:35:50.525Z,27.65
2023-07-11T19:38:25.552Z,31.17
2023-07-11T19:40:52.893Z,23.58
2023-07-11T19:43:20.214Z,24.85
2023-07-11T19:45:56.758Z,25.67
2023-07-11T19:48:28.446Z,24.55
2023-07-11T19:50:58.328Z,26.45
2023-07-11T19:53:34.905Z,19.97
2023-07-11T19:56:18.681Z,24.00
2023-07-11T19:58:46.232Z,21.25
2023-07-11T20:01:12.864Z,18.60
2023-07-11T20:03:39.602Z,17.50
2023-07-11T20:06:16.460Z,27.02
2023-07-11T20:08:44.113Z,20.05
2023-07-11T20:11:11.189Z,24.02
2023-07-11T20:13:37.926Z,23.38
2023-07-11T20:16:23.680Z,26.67
2023-07-11T20:18:50.790Z,21.60
2023-07-11T20:21:21.714Z,38.67
2023-07-11T20:23:51.432Z,24.85
2023-07-11T20:26:24.738Z,28.00
2023-07-11T20:28:52.363Z,34.35
2023-07-11T20:31:19.049Z,28.00
2023-07-11T20:33:45.657Z,28.25
2023-07-11T20:36:19.920Z,23.85
2023-07-11T20:38:46.513Z,22.33
2023-07-11T20:41:14.490Z,23.77
2023-07-11T20:43:44.992Z,24.40
2023-07-11T20:46:22.884Z,25.50
2023-07-11T20:48:50.786Z,27.20
2023-07-11T20:51:19.296Z,29.65
2023-07-11T20:53:46.396Z,26.30
2023-07-11T20:56:22.669Z,26.83
2023-07-11T20:58:51.816Z,25.30
2023-07-11T21:01:21.037Z,31.45
2023-07-11T21:03:48.650Z,29.65
2023-07-11T21:06:21.915Z,27.98
2023-07-11T21:08:48.763Z,25.60
2023-07-11T21:11:15.554Z,26.65
2023-07-11T21:13:43.785Z,36.55
2023-07-11T21:16:15.208Z,28.75
2023-07-11T21:18:41.986Z,25.70
2023-07-11T21:21:10.958Z,32.08
2023-07-11T21:23:37.870Z,25.23
2023-07-11T21:26:14.446Z,31.23
2023-07-11T21:28:41.914Z,30.30
2023-07-11T21:31:11.745Z,36.67
2023-07-11T21:33:39.735Z,32.03
2023-07-11T21:36:15.245Z,38.20
2023-07-11T21:38:41.827Z,35.55
2023-07-11T21:41:13.232Z,25.77
2023-07-11T21:43:40.023Z,24.60
2023-07-11T21:46:20.716Z,22.10
2023-07-11T21:49:46.255Z,28.48
2023-07-11T21:52:12.915Z,24.33
2023-07-11T21:54:39.548Z,25.48
2023-07-11T21:57:09.843Z,24.13
2023-07-11T21:59:36.484Z,22.40
2023-07-11T22:02:03.165Z,19.30
2023-07-11T22:04:29.888Z,20.25
2023-07-11T22:06:56.937Z,33.03
2023-07-11T22:09:24.256Z,20.17
2023-07-11T22:11:50.938Z,21.77
2023-07-11T22:14:19.266Z,19.02
2023-07-11T22:16:48.606Z,19.25
2023-07-11T22:19:23.487Z,19.67
2023-07-11T22:21:53.786Z,15.32
2023-07-11T22:24:23.891Z,17.15
2023-07-11T22:26:50.541Z,14.60
2023-07-11T22:29:17.162Z,19.95
2023-07-11T22:31:43.846Z,19.88
2023-07-11T22:34:10.430Z,20.48
2023-07-11T22:36:37.268Z,20.13
2023-07-11T22:39:03.838Z,26.17
2023-07-11T22:41:30.492Z,25.75
2023-07-11T22:43:57.106Z,27.48
2023-07-11T22:46:24.570Z,16.48
2023-07-11T22:48:51.420Z,14.75
2023-07-11T22:54:07.125Z,15.30
2023-07-11T22:56:33.759Z,26.92
2023-07-11T22:59:00.439Z,18.42
2023-07-11T23:01:27.071Z,17.45
2023-07-11T23:04:09.466Z,16.77
2023-07-11T23:06:38.891Z,18.70
2023-07-11T23:09:05.533Z,17.40
2023-07-11T23:15:07.181Z,16.55
2023-07-11T23:17:36.838Z,25.35
2023-07-11T23:20:16.314Z,18.55
2023-07-11T23:22:42.983Z,15.93
2023-07-11T23:28:39.769Z,18.08
2023-07-11T23:31:06.649Z,16.05
2023-07-11T23:33:33.612Z,19.17
2023-07-11T23:36:03.742Z,16.55
2023-07-11T23:38:30.429Z,19.90
2023-07-11T23:41:24.301Z,19.48
2023-07-11T23:43:53.078Z,14.80
2023-07-11T23:46:34.316Z,19.42
2023-07-11T23:51:47.872Z,39.38
2023-07-11T23:54:26.460Z,16.60
2023-07-11T23:56:53.075Z,16.67
2023-07-11T23:59:19.851Z,19.17
